sensor_id;sensor_type;location;lat;lon;timestamp;pressure;altitude;pressure_sealevel;temperature;humidity
73516;BME280;61763;51.416;5.442;2024-03-06T00:01:37;101675.53;;;3.24;100.00
73516;BME280;61763;51.416;5.442;2024-03-06T00:04:03;101669.38;;;3.15;100.00
73516;BME280;61763;51.416;5.442;2024-03-06T00:06:29;101673.84;;;3.09;100.00
73516;BME280;61763;51.416;5.442;2024-03-06T00:08:55;101674.78;;;3.03;100.00
73516;BME280;61763;51.416;5.442;2024-03-06T00:11:21;101686.38;;;2.94;100.00
73516;BME280;61763;51.416;5.442;2024-03-06T00:13:46;101682.88;;;2.86;100.00
73516;BME280;61763;51.416;5.442;2024-03-06T00:16:13;101689.16;;;2.76;100.00
73516;BME280;61763;51.416;5.442;2024-03-06T00:18:38;101691.88;;;2.67;100.00
73516;BME280;61763;51.416;5.442;2024-03-06T00:21:04;101701.63;;;2.60;100.00
73516;BME280;61763;51.416;5.442;2024-03-06T00:23:29;101697.22;;;2.54;100.00
73516;BME280;61763;51.416;5.442;2024-03-06T00:25:56;101706.13;;;2.53;100.00
73516;BME280;61763;51.416;5.442;2024-03-06T00:28:21;101703.44;;;2.50;100.00
73516;BME280;61763;51.416;5.442;2024-03-06T00:30:46;101697.25;;;2.45;100.00
73516;BME280;61763;51.416;5.442;2024-03-06T00:33:12;101708.81;;;2.41;100.00
73516;BME280;61763;51.416;5.442;2024-03-06T00:35:37;101715.94;;;2.37;100.00
73516;BME280;61763;51.416;5.442;2024-03-06T00:38:04;101712.38;;;2.32;100.00
73516;BME280;61763;51.416;5.442;2024-03-06T00:40:29;101707.94;;;2.31;100.00
73516;BME280;61763;51.416;5.442;2024-03-06T00:42:56;101715.03;;;2.31;100.00
73516;BME280;61763;51.416;5.442;2024-03-06T00:45:22;101710.63;;;2.25;100.00
73516;BME280;61763;51.416;5.442;2024-03-06T00:47:48;101712.41;;;2.21;100.00
73516;BME280;61763;51.416;5.442;2024-03-06T00:50:13;101715.97;;;2.19;100.00
73516;BME280;61763;51.416;5.442;2024-03-06T00:52:39;101709.78;;;2.12;100.00
73516;BME280;61763;51.416;5.442;2024-03-06T00:55:05;101706.22;;;2.05;100.00
73516;BME280;61763;51.416;5.442;2024-03-06T00:57:30;101710.66;;;1.97;100.00
73516;BME280;61763;51.416;5.442;2024-03-06T00:59:56;101717.78;;;1.90;100.00
73516;BME280;61763;51.416;5.442;2024-03-06T01:02:21;101716.00;;;1.86;100.00
73516;BME280;61763;51.416;5.442;2024-03-06T01:04:47;101715.13;;;1.81;100.00
73516;BME280;61763;51.416;5.442;2024-03-06T01:07:12;101718.66;;;1.75;100.00
73516;BME280;61763;51.416;5.442;2024-03-06T01:09:38;101724.00;;;1.69;100.00
73516;BME280;61763;51.416;5.442;2024-03-06T01:12:03;101731.06;;;1.69;100.00
73516;BME280;61763;51.416;5.442;2024-03-06T01:14:30;101724.00;;;1.74;100.00
73516;BME280;61763;51.416;5.442;2024-03-06T01:16:56;101726.66;;;1.71;100.00
73516;BME280;61763;51.416;5.442;2024-03-06T01:19:21;101733.72;;;1.69;100.00
73516;BME280;61763;51.416;5.442;2024-03-06T01:21:47;101728.41;;;1.63;100.00
73516;BME280;61763;51.416;5.442;2024-03-06T01:24:13;101723.97;;;1.58;100.00
73516;BME280;61763;51.416;5.442;2024-03-06T01:26:39;101733.72;;;1.50;100.00
73516;BME280;61763;51.416;5.442;2024-03-06T01:29:06;101733.69;;;1.47;100.00
73516;BME280;61763;51.416;5.442;2024-03-06T01:31:31;101731.03;;;1.47;100.00
73516;BME280;61763;51.416;5.442;2024-03-06T01:33:57;101731.94;;;1.51;100.00
73516;BME280;61763;51.416;5.442;2024-03-06T01:36:23;101735.47;;;1.50;100.00
73516;BME280;61763;51.416;5.442;2024-03-06T01:38:49;101739.91;;;1.42;100.00
73516;BME280;61763;51.416;5.442;2024-03-06T01:41:15;101743.44;;;1.34;100.00
73516;BME280;61763;51.416;5.442;2024-03-06T01:43:41;101739.00;;;1.27;100.00
73516;BME280;61763;51.416;5.442;2024-03-06T01:46:07;101739.84;;;1.18;100.00
73516;BME280;61763;51.416;5.442;2024-03-06T01:48:33;101741.59;;;1.13;100.00
73516;BME280;61763;51.416;5.442;2024-03-06T01:51:00;101745.16;;;1.09;100.00
73516;BME280;61763;51.416;5.442;2024-03-06T01:53:29;101743.38;;;1.07;100.00
73516;BME280;61763;51.416;5.442;2024-03-06T01:55:56;101748.66;;;1.00;100.00
73516;BME280;61763;51.416;5.442;2024-03-06T01:58:21;101746.88;;;0.96;100.00
73516;BME280;61763;51.416;5.442;2024-03-06T02:00:50;101747.75;;;0.92;100.00
73516;BME280;61763;51.416;5.442;2024-03-06T02:03:17;101750.38;;;0.89;100.00
73516;BME280;61763;51.416;5.442;2024-03-06T02:05:44;101761.88;;;0.86;100.00
73516;BME280;61763;51.416;5.442;2024-03-06T02:08:09;101763.66;;;0.83;100.00
73516;BME280;61763;51.416;5.442;2024-03-06T02:10:35;101775.16;;;0.80;100.00
73516;BME280;61763;51.416;5.442;2024-03-06T02:13:01;101775.16;;;0.79;100.00
73516;BME280;61763;51.416;5.442;2024-03-06T02:15:26;101781.31;;;0.75;100.00
73516;BME280;61763;51.416;5.442;2024-03-06T02:17:52;101780.44;;;0.74;100.00
73516;BME280;61763;51.416;5.442;2024-03-06T02:20:25;101784.00;;;0.79;100.00
73516;BME280;61763;51.416;5.442;2024-03-06T02:22:50;101779.56;;;0.77;100.00
73516;BME280;61763;51.416;5.442;2024-03-06T02:25:16;101780.44;;;0.71;100.00
73516;BME280;61763;51.416;5.442;2024-03-06T02:27:43;101783.06;;;0.65;100.00
73516;BME280;61763;51.416;5.442;2024-03-06T02:30:09;101779.47;;;0.60;100.00
73516;BME280;61763;51.416;5.442;2024-03-06T02:32:34;101790.94;;;0.56;100.00
73516;BME280;61763;51.416;5.442;2024-03-06T02:35:03;101789.13;;;0.50;100.00
73516;BME280;61763;51.416;5.442;2024-03-06T02:37:29;101785.59;;;0.48;100.00
73516;BME280;61763;51.416;5.442;2024-03-06T02:39:54;101783.78;;;0.44;100.00
73516;BME280;61763;51.416;5.442;2024-03-06T02:42:20;101791.75;;;0.42;100.00
73516;BME280;61763;51.416;5.442;2024-03-06T02:44:45;101782.91;;;0.42;100.00
73516;BME280;61763;51.416;5.442;2024-03-06T02:47:10;101786.44;;;0.41;100.00
73516;BME280;61763;51.416;5.442;2024-03-06T02:49:36;101785.56;;;0.40;100.00
73516;BME280;61763;51.416;5.442;2024-03-06T02:52:01;101774.91;;;0.34;100.00
73516;BME280;61763;51.416;5.442;2024-03-06T02:54:27;101786.41;;;0.36;100.00
73516;BME280;61763;51.416;5.442;2024-03-06T02:56:52;101778.41;;;0.33;100.00
73516;BME280;61763;51.416;5.442;2024-03-06T02:59:18;101774.91;;;0.34;100.00
73516;BME280;61763;51.416;5.442;2024-03-06T03:01:44;101774.00;;;0.37;100.00
73516;BME280;61763;51.416;5.442;2024-03-06T03:04:10;101781.09;;;0.39;100.00
73516;BME280;61763;51.416;5.442;2024-03-06T03:06:35;101778.47;;;0.42;100.00
73516;BME280;61763;51.416;5.442;2024-03-06T03:09:01;101780.28;;;0.46;100.00
73516;BME280;61763;51.416;5.442;2024-03-06T03:11:28;101785.59;;;0.46;100.00
73516;BME280;61763;51.416;5.442;2024-03-06T03:13:53;101783.81;;;0.48;100.00
73516;BME280;61763;51.416;5.442;2024-03-06T03:16:19;101777.66;;;0.52;100.00
73516;BME280;61763;51.416;5.442;2024-03-06T03:18:45;101794.50;;;0.55;100.00
73516;BME280;61763;51.416;5.442;2024-03-06T03:21:11;101788.28;;;0.54;100.00
73516;BME280;61763;51.416;5.442;2024-03-06T03:23:37;101793.63;;;0.57;100.00
73516;BME280;61763;51.416;5.442;2024-03-06T03:26:03;101788.31;;;0.57;100.00
73516;BME280;61763;51.416;5.442;2024-03-06T03:28:29;101790.09;;;0.60;100.00
73516;BME280;61763;51.416;5.442;2024-03-06T03:30:54;101790.97;;;0.60;100.00
73516;BME280;61763;51.416;5.442;2024-03-06T03:33:20;101795.41;;;0.60;100.00
73516;BME280;61763;51.416;5.442;2024-03-06T03:35:45;101791.88;;;0.61;100.00
73516;BME280;61763;51.416;5.442;2024-03-06T03:38:10;101790.97;;;0.62;100.00
73516;BME280;61763;51.416;5.442;2024-03-06T03:40:36;101790.13;;;0.67;100.00
73516;BME280;61763;51.416;5.442;2024-03-06T03:43:01;101798.13;;;0.74;100.00
73516;BME280;61763;51.416;5.442;2024-03-06T03:45:32;101799.94;;;0.78;100.00
73516;BME280;61763;51.416;5.442;2024-03-06T03:48:02;101796.41;;;0.79;100.00
73516;BME280;61763;51.416;5.442;2024-03-06T03:50:30;101799.06;;;0.80;100.00
73516;BME280;61763;51.416;5.442;2024-03-06T03:52:55;101802.59;;;0.78;100.00
73516;BME280;61763;51.416;5.442;2024-03-06T03:55:24;101806.09;;;0.72;100.00
73516;BME280;61763;51.416;5.442;2024-03-06T03:57:50;101802.53;;;0.68;100.00
73516;BME280;61763;51.416;5.442;2024-03-06T04:00:16;101801.66;;;0.63;100.00
73516;BME280;61763;51.416;5.442;2024-03-06T04:02:41;101809.56;;;0.60;100.00
73516;BME280;61763;51.416;5.442;2024-03-06T04:05:07;101807.78;;;0.55;100.00
73516;BME280;61763;51.416;5.442;2024-03-06T04:07:32;101813.03;;;0.48;100.00
73516;BME280;61763;51.416;5.442;2024-03-06T04:09:58;101805.03;;;0.41;100.00
73516;BME280;61763;51.416;5.442;2024-03-06T04:12:24;101803.22;;;0.35;100.00
73516;BME280;61763;51.416;5.442;2024-03-06T04:14:50;101816.44;;;0.27;100.00
73516;BME280;61763;51.416;5.442;2024-03-06T04:17:15;101811.94;;;0.17;100.00
73516;BME280;61763;51.416;5.442;2024-03-06T04:19:40;101813.66;;;0.12;100.00
73516;BME280;61763;51.416;5.442;2024-03-06T04:22:06;101812.75;;;0.11;100.00
73516;BME280;61763;51.416;5.442;2024-03-06T04:24:31;101817.19;;;0.09;100.00
73516;BME280;61763;51.416;5.442;2024-03-06T04:26:56;101818.03;;;0.05;100.00
73516;BME280;61763;51.416;5.442;2024-03-06T04:29:21;101827.72;;;0.00;100.00
73516;BME280;61763;51.416;5.442;2024-03-06T04:31:47;101827.66;;;-0.05;100.00
73516;BME280;61763;51.416;5.442;2024-03-06T04:34:12;101826.78;;;-0.05;100.00
73516;BME280;61763;51.416;5.442;2024-03-06T04:36:37;101841.78;;;-0.09;100.00
73516;BME280;61763;51.416;5.442;2024-03-06T04:39:03;101834.69;;;-0.10;100.00
73516;BME280;61763;51.416;5.442;2024-03-06T04:41:33;101842.66;;;-0.10;100.00
73516;BME280;61763;51.416;5.442;2024-03-06T04:43:59;101841.78;;;-0.10;100.00
73516;BME280;61763;51.416;5.442;2024-03-06T04:46:26;101848.84;;;-0.08;100.00
73516;BME280;61763;51.416;5.442;2024-03-06T04:48:51;101853.28;;;-0.10;100.00
73516;BME280;61763;51.416;5.442;2024-03-06T04:51:17;101867.38;;;-0.15;100.00
73516;BME280;61763;51.416;5.442;2024-03-06T04:53:45;101858.50;;;-0.19;100.00
73516;BME280;61763;51.416;5.442;2024-03-06T04:56:10;101873.50;;;-0.20;100.00
73516;BME280;61763;51.416;5.442;2024-03-06T04:58:35;101865.53;;;-0.23;100.00
73516;BME280;61763;51.416;5.442;2024-03-06T05:01:01;101873.47;;;-0.23;100.00
73516;BME280;61763;51.416;5.442;2024-03-06T05:03:26;101873.44;;;-0.27;100.00
73516;BME280;61763;51.416;5.442;2024-03-06T05:05:51;101875.13;;;-0.32;100.00
73516;BME280;61763;51.416;5.442;2024-03-06T05:08:17;101893.75;;;-0.31;100.00
73516;BME280;61763;51.416;5.442;2024-03-06T05:10:42;101885.84;;;-0.26;100.00
73516;BME280;61763;51.416;5.442;2024-03-06T05:13:07;101885.84;;;-0.26;100.00
73516;BME280;61763;51.416;5.442;2024-03-06T05:15:33;101891.16;;;-0.23;100.00
73516;BME280;61763;51.416;5.442;2024-03-06T05:17:59;101893.81;;;-0.23;100.00
73516;BME280;61763;51.416;5.442;2024-03-06T05:20:25;101896.41;;;-0.29;100.00
73516;BME280;61763;51.416;5.442;2024-03-06T05:22:51;101893.66;;;-0.36;100.00
73516;BME280;61763;51.416;5.442;2024-03-06T05:25:16;101903.38;;;-0.38;100.00
73516;BME280;61763;51.416;5.442;2024-03-06T05:27:41;101905.97;;;-0.42;100.00
73516;BME280;61763;51.416;5.442;2024-03-06T05:30:07;101906.81;;;-0.45;100.00
73516;BME280;61763;51.416;5.442;2024-03-06T05:32:33;101900.63;;;-0.47;100.00
73516;BME280;61763;51.416;5.442;2024-03-06T05:34:59;101898.81;;;-0.51;100.00
73516;BME280;61763;51.416;5.442;2024-03-06T05:37:24;101907.63;;;-0.52;100.00
73516;BME280;61763;51.416;5.442;2024-03-06T05:39:50;101909.38;;;-0.54;100.00
73516;BME280;61763;51.416;5.442;2024-03-06T05:42:15;101914.66;;;-0.56;100.00
73516;BME280;61763;51.416;5.442;2024-03-06T05:44:40;101917.25;;;-0.62;100.00
73516;BME280;61763;51.416;5.442;2024-03-06T05:47:06;101924.22;;;-0.67;100.00
73516;BME280;61763;51.416;5.442;2024-03-06T05:49:32;101925.06;;;-0.71;100.00
73516;BME280;61763;51.416;5.442;2024-03-06T05:51:58;101927.69;;;-0.73;100.00
73516;BME280;61763;51.416;5.442;2024-03-06T05:54:23;101931.25;;;-0.72;100.00
73516;BME280;61763;51.416;5.442;2024-03-06T05:56:49;101934.72;;;-0.76;100.00
73516;BME280;61763;51.416;5.442;2024-03-06T05:59:17;101942.63;;;-0.79;100.00
73516;BME280;61763;51.416;5.442;2024-03-06T06:01:42;101946.16;;;-0.79;100.00
73516;BME280;61763;51.416;5.442;2024-03-06T06:04:08;101962.03;;;-0.80;100.00
73516;BME280;61763;51.416;5.442;2024-03-06T06:06:37;101963.84;;;-0.79;100.00
73516;BME280;61763;51.416;5.442;2024-03-06T06:09:03;101962.16;;;-0.73;100.00
73516;BME280;61763;51.416;5.442;2024-03-06T06:11:32;101957.81;;;-0.67;100.00
73516;BME280;61763;51.416;5.442;2024-03-06T06:13:58;101959.59;;;-0.65;100.00
73516;BME280;61763;51.416;5.442;2024-03-06T06:16:24;101965.81;;;-0.64;100.00
73516;BME280;61763;51.416;5.442;2024-03-06T06:18:49;101967.53;;;-0.65;100.00
73516;BME280;61763;51.416;5.442;2024-03-06T06:21:14;101962.25;;;-0.65;100.00
73516;BME280;61763;51.416;5.442;2024-03-06T06:23:41;101966.66;;;-0.67;100.00
73516;BME280;61763;51.416;5.442;2024-03-06T06:26:08;101974.63;;;-0.65;100.00
73516;BME280;61763;51.416;5.442;2024-03-06T06:28:35;101976.44;;;-0.63;100.00
73516;BME280;61763;51.416;5.442;2024-03-06T06:31:02;101969.31;;;-0.65;100.00
73516;BME280;61763;51.416;5.442;2024-03-06T06:33:28;101971.94;;;-0.67;100.00
73516;BME280;61763;51.416;5.442;2024-03-06T06:35:54;101982.59;;;-0.64;100.00
73516;BME280;61763;51.416;5.442;2024-03-06T06:38:19;101978.25;;;-0.60;100.00
73516;BME280;61763;51.416;5.442;2024-03-06T06:40:45;101989.78;;;-0.57;100.00
73516;BME280;61763;51.416;5.442;2024-03-06T06:43:10;101994.31;;;-0.48;100.00
73516;BME280;61763;51.416;5.442;2024-03-06T06:45:36;102000.66;;;-0.38;100.00
73516;BME280;61763;51.416;5.442;2024-03-06T06:48:03;101993.59;;;-0.34;100.00
73516;BME280;61763;51.416;5.442;2024-03-06T06:50:28;102001.66;;;-0.27;100.00
73516;BME280;61763;51.416;5.442;2024-03-06T06:52:54;101989.41;;;-0.17;100.00
73516;BME280;61763;51.416;5.442;2024-03-06T06:55:19;102001.09;;;-0.03;100.00
73516;BME280;61763;51.416;5.442;2024-03-06T06:57:48;102000.38;;;0.14;100.00
73516;BME280;61763;51.416;5.442;2024-03-06T07:00:14;102005.00;;;0.32;100.00
73516;BME280;61763;51.416;5.442;2024-03-06T07:02:42;102004.25;;;0.45;100.00
73516;BME280;61763;51.416;5.442;2024-03-06T07:05:09;102010.56;;;0.58;100.00
73516;BME280;61763;51.416;5.442;2024-03-06T07:07:35;102020.41;;;0.68;100.00
73516;BME280;61763;51.416;5.442;2024-03-06T07:10:01;102013.44;;;0.80;100.00
73516;BME280;61763;51.416;5.442;2024-03-06T07:12:27;102022.41;;;0.94;100.00
73516;BME280;61763;51.416;5.442;2024-03-06T07:14:53;102028.72;;;1.09;100.00
73516;BME280;61763;51.416;5.442;2024-03-06T07:17:18;102020.91;;;1.27;100.00
73516;BME280;61763;51.416;5.442;2024-03-06T07:19:44;102033.44;;;1.47;100.00
73516;BME280;61763;51.416;5.442;2024-03-06T07:22:09;102029.09;;;1.61;100.00
73516;BME280;61763;51.416;5.442;2024-03-06T07:24:34;102032.72;;;1.74;100.00
73516;BME280;61763;51.416;5.442;2024-03-06T07:27:00;102037.19;;;1.81;100.00
73516;BME280;61763;51.416;5.442;2024-03-06T07:29:27;102036.31;;;1.88;100.00
73516;BME280;61763;51.416;5.442;2024-03-06T07:31:52;102035.47;;;2.00;100.00
73516;BME280;61763;51.416;5.442;2024-03-06T07:34:19;102038.19;;;2.09;100.00
73516;BME280;61763;51.416;5.442;2024-03-06T07:36:45;102038.25;;;2.23;100.00
73516;BME280;61763;51.416;5.442;2024-03-06T07:39:11;102039.16;;;2.30;100.00
73516;BME280;61763;51.416;5.442;2024-03-06T07:41:37;102043.63;;;2.36;100.00
73516;BME280;61763;51.416;5.442;2024-03-06T07:44:03;102040.97;;;2.43;100.00
73516;BME280;61763;51.416;5.442;2024-03-06T07:46:28;102049.84;;;2.50;100.00
73516;BME280;61763;51.416;5.442;2024-03-06T07:48:54;102048.13;;;2.61;100.00
73516;BME280;61763;51.416;5.442;2024-03-06T07:51:20;102050.78;;;2.65;100.00
73516;BME280;61763;51.416;5.442;2024-03-06T07:53:45;102052.56;;;2.67;100.00
73516;BME280;61763;51.416;5.442;2024-03-06T07:56:11;102052.56;;;2.70;100.00
73516;BME280;61763;51.416;5.442;2024-03-06T07:58:37;102056.16;;;2.91;100.00
73516;BME280;61763;51.416;5.442;2024-03-06T08:01:03;102058.84;;;3.15;100.00
73516;BME280;61763;51.416;5.442;2024-03-06T08:03:28;102059.69;;;3.41;100.00
73516;BME280;61763;51.416;5.442;2024-03-06T08:05:54;102061.44;;;3.71;100.00
73516;BME280;61763;51.416;5.442;2024-03-06T08:08:20;102070.28;;;3.95;100.00
73516;BME280;61763;51.416;5.442;2024-03-06T08:10:46;102066.63;;;4.16;100.00
73516;BME280;61763;51.416;5.442;2024-03-06T08:13:11;102069.22;;;4.31;100.00
73516;BME280;61763;51.416;5.442;2024-03-06T08:15:37;102069.09;;;4.57;100.00
73516;BME280;61763;51.416;5.442;2024-03-06T08:18:02;102074.38;;;4.70;100.00
73516;BME280;61763;51.416;5.442;2024-03-06T08:20:29;102076.88;;;4.91;100.00
73516;BME280;61763;51.416;5.442;2024-03-06T08:22:55;102073.19;;;5.13;100.00
73516;BME280;61763;51.416;5.442;2024-03-06T08:25:21;102083.81;;;5.22;100.00
73516;BME280;61763;51.416;5.442;2024-03-06T08:27:47;102086.38;;;5.34;100.00
73516;BME280;61763;51.416;5.442;2024-03-06T08:30:12;102096.06;;;5.48;100.00
73516;BME280;61763;51.416;5.442;2024-03-06T08:32:38;102085.16;;;5.68;100.00
73516;BME280;61763;51.416;5.442;2024-03-06T08:35:13;102083.25;;;5.82;100.00
73516;BME280;61763;51.416;5.442;2024-03-06T08:37:39;102086.72;;;5.92;100.00
73516;BME280;61763;51.416;5.442;2024-03-06T08:40:06;102090.19;;;6.02;100.00
73516;BME280;61763;51.416;5.442;2024-03-06T08:42:45;102093.69;;;6.10;100.00
73516;BME280;61763;51.416;5.442;2024-03-06T08:45:12;102100.78;;;6.14;100.00
73516;BME280;61763;51.416;5.442;2024-03-06T08:47:39;102100.75;;;6.17;100.00
73516;BME280;61763;51.416;5.442;2024-03-06T08:50:05;102096.94;;;6.37;100.00
73516;BME280;61763;51.416;5.442;2024-03-06T08:52:31;102102.03;;;6.58;100.00
73516;BME280;61763;51.416;5.442;2024-03-06T08:54:57;102104.63;;;6.64;100.00
73516;BME280;61763;51.416;5.442;2024-03-06T08:57:22;102102.66;;;6.77;100.00
73516;BME280;61763;51.416;5.442;2024-03-06T08:59:49;102101.50;;;6.94;100.00
73516;BME280;61763;51.416;5.442;2024-03-06T09:02:18;102093.59;;;6.86;100.00
73516;BME280;61763;51.416;5.442;2024-03-06T09:04:45;102105.03;;;6.97;100.00
73516;BME280;61763;51.416;5.442;2024-03-06T09:07:11;102106.78;;;7.00;100.00
73516;BME280;61763;51.416;5.442;2024-03-06T09:09:37;102114.69;;;7.09;100.00
73516;BME280;61763;51.416;5.442;2024-03-06T09:12:04;102107.47;;;7.14;100.00
73516;BME280;61763;51.416;5.442;2024-03-06T09:14:32;102109.88;;;7.30;100.00
73516;BME280;61763;51.416;5.442;2024-03-06T09:16:57;102111.38;;;7.46;100.00
73516;BME280;61763;51.416;5.442;2024-03-06T09:19:23;102111.09;;;7.63;100.00
73516;BME280;61763;51.416;5.442;2024-03-06T09:21:48;102113.31;;;7.89;100.00
73516;BME280;61763;51.416;5.442;2024-03-06T09:24:13;102106.66;;;8.09;100.00
73516;BME280;61763;51.416;5.442;2024-03-06T09:26:39;102107.78;;;8.44;100.00
73516;BME280;61763;51.416;5.442;2024-03-06T09:29:04;102112.66;;;8.69;100.00
73516;BME280;61763;51.416;5.442;2024-03-06T09:31:32;102113.66;;;9.02;100.00
73516;BME280;61763;51.416;5.442;2024-03-06T09:33:57;102110.47;;;9.24;100.00
73516;BME280;61763;51.416;5.442;2024-03-06T09:36:23;102119.25;;;9.32;100.00
73516;BME280;61763;51.416;5.442;2024-03-06T09:38:49;102119.31;;;9.27;100.00
73516;BME280;61763;51.416;5.442;2024-03-06T09:41:14;102110.50;;;9.57;100.00
73516;BME280;61763;51.416;5.442;2024-03-06T09:43:40;102116.34;;;9.74;100.00
73516;BME280;61763;51.416;5.442;2024-03-06T09:46:07;102118.59;;;9.91;100.00
73516;BME280;61763;51.416;5.442;2024-03-06T09:48:33;102118.47;;;9.96;100.00
73516;BME280;61763;51.416;5.442;2024-03-06T09:51:02;102128.22;;;9.67;100.00
73516;BME280;61763;51.416;5.442;2024-03-06T09:53:28;102136.13;;;9.75;100.00
73516;BME280;61763;51.416;5.442;2024-03-06T09:55:56;102131.97;;;9.61;100.00
73516;BME280;61763;51.416;5.442;2024-03-06T09:58:22;102135.97;;;9.81;100.00
73516;BME280;61763;51.416;5.442;2024-03-06T10:00:48;102138.91;;;10.05;100.00
73516;BME280;61763;51.416;5.442;2024-03-06T10:03:15;102137.34;;;10.29;100.00
73516;BME280;61763;51.416;5.442;2024-03-06T10:05:40;102139.81;;;10.38;100.00
73516;BME280;61763;51.416;5.442;2024-03-06T10:08:06;102132.16;;;10.54;100.00
73516;BME280;61763;51.416;5.442;2024-03-06T10:10:31;102139.31;;;10.85;100.00
73516;BME280;61763;51.416;5.442;2024-03-06T10:12:57;102142.59;;;10.66;100.00
73516;BME280;61763;51.416;5.442;2024-03-06T10:15:23;102139.81;;;10.98;100.00
73516;BME280;61763;51.416;5.442;2024-03-06T10:17:48;102142.25;;;10.77;100.00
73516;BME280;61763;51.416;5.442;2024-03-06T10:20:21;102141.63;;;10.69;100.00
73516;BME280;61763;51.416;5.442;2024-03-06T10:22:49;102136.50;;;10.90;100.00
73516;BME280;61763;51.416;5.442;2024-03-06T10:25:18;102136.19;;;11.27;100.00
73516;BME280;61763;51.416;5.442;2024-03-06T10:27:43;102138.72;;;11.32;100.00
73516;BME280;61763;51.416;5.442;2024-03-06T10:30:09;102138.13;;;11.50;100.00
73516;BME280;61763;51.416;5.442;2024-03-06T10:32:38;102140.66;;;11.28;100.00
73516;BME280;61763;51.416;5.442;2024-03-06T10:35:04;102135.41;;;11.24;100.00
73516;BME280;61763;51.416;5.442;2024-03-06T10:37:31;102132.94;;;10.87;100.00
73516;BME280;61763;51.416;5.442;2024-03-06T10:40:02;102140.16;;;10.57;100.00
73516;BME280;61763;51.416;5.442;2024-03-06T10:42:32;102145.50;;;10.26;100.00
73516;BME280;61763;51.416;5.442;2024-03-06T10:44:59;102150.41;;;9.78;100.00
73516;BME280;61763;51.416;5.442;2024-03-06T10:47:26;102144.34;;;9.69;100.00
73516;BME280;61763;51.416;5.442;2024-03-06T10:49:53;102155.13;;;9.69;100.00
73516;BME280;61763;51.416;5.442;2024-03-06T10:52:20;102153.59;;;9.60;100.00
73516;BME280;61763;51.416;5.442;2024-03-06T10:54:48;102153.59;;;9.58;100.00
73516;BME280;61763;51.416;5.442;2024-03-06T10:57:14;102140.25;;;9.54;100.00
73516;BME280;61763;51.416;5.442;2024-03-06T10:59:40;102153.25;;;9.72;100.00
73516;BME280;61763;51.416;5.442;2024-03-06T11:02:07;102149.44;;;9.81;100.00
73516;BME280;61763;51.416;5.442;2024-03-06T11:04:34;102146.75;;;9.81;100.00
73516;BME280;61763;51.416;5.442;2024-03-06T11:07:00;102151.94;;;9.89;100.00
73516;BME280;61763;51.416;5.442;2024-03-06T11:09:36;102145.06;;;10.10;100.00
73516;BME280;61763;51.416;5.442;2024-03-06T11:12:04;102150.44;;;10.10;100.00
73516;BME280;61763;51.416;5.442;2024-03-06T11:14:32;102148.25;;;10.24;100.00
73516;BME280;61763;51.416;5.442;2024-03-06T11:17:08;102149.53;;;10.11;100.00
73516;BME280;61763;51.416;5.442;2024-03-06T11:28:11;102148.28;;;12.22;100.00
73516;BME280;61763;51.416;5.442;2024-03-06T11:30:56;102144.88;;;12.65;100.00
73516;BME280;61763;51.416;5.442;2024-03-06T11:33:43;102154.94;;;13.08;100.00
73516;BME280;61763;51.416;5.442;2024-03-06T11:38:42;102150.13;;;12.93;100.00
73516;BME280;61763;51.416;5.442;2024-03-06T11:41:09;102155.25;;;13.01;100.00
73516;BME280;61763;51.416;5.442;2024-03-06T11:43:42;102156.66;;;13.11;100.00
73516;BME280;61763;51.416;5.442;2024-03-06T11:46:08;102155.78;;;13.32;100.00
73516;BME280;61763;51.416;5.442;2024-03-06T11:48:37;102155.69;;;13.36;100.00
73516;BME280;61763;51.416;5.442;2024-03-06T11:51:03;102153.13;;;13.09;100.00
73516;BME280;61763;51.416;5.442;2024-03-06T11:53:30;102161.03;;;13.59;100.00
73516;BME280;61763;51.416;5.442;2024-03-06T11:55:56;102163.34;;;13.69;100.00
73516;BME280;61763;51.416;5.442;2024-03-06T11:58:22;102161.75;;;13.19;100.00
73516;BME280;61763;51.416;5.442;2024-03-06T12:00:48;102163.47;;;13.21;100.00
73516;BME280;61763;51.416;5.442;2024-03-06T12:03:13;102166.16;;;12.75;100.00
73516;BME280;61763;51.416;5.442;2024-03-06T12:05:39;102165.84;;;12.59;100.00
73516;BME280;61763;51.416;5.442;2024-03-06T12:08:06;102159.28;;;12.67;100.00
73516;BME280;61763;51.416;5.442;2024-03-06T12:10:36;102159.56;;;12.59;100.00
73516;BME280;61763;51.416;5.442;2024-03-06T12:13:03;102157.06;;;12.53;100.00
73516;BME280;61763;51.416;5.442;2024-03-06T12:15:28;102159.16;;;12.46;100.00
73516;BME280;61763;51.416;5.442;2024-03-06T12:17:54;102156.63;;;12.41;100.00
73516;BME280;61763;51.416;5.442;2024-03-06T12:20:20;102159.50;;;12.37;100.00
73516;BME280;61763;51.416;5.442;2024-03-06T12:22:49;102165.50;;;12.20;100.00
73516;BME280;61763;51.416;5.442;2024-03-06T12:25:25;102173.75;;;12.17;100.00
73516;BME280;61763;51.416;5.442;2024-03-06T12:27:53;102171.22;;;11.85;100.00
73516;BME280;61763;51.416;5.442;2024-03-06T12:30:21;102166.53;;;11.64;100.00
73516;BME280;61763;51.416;5.442;2024-03-06T12:32:57;102162.06;;;11.88;100.00
73516;BME280;61763;51.416;5.442;2024-03-06T12:35:26;102163.50;;;11.73;100.00
73516;BME280;61763;51.416;5.442;2024-03-06T12:37:52;102168.25;;;11.93;100.00
73516;BME280;61763;51.416;5.442;2024-03-06T12:40:19;102161.66;;;12.02;100.00
73516;BME280;61763;51.416;5.442;2024-03-06T12:42:44;102165.34;;;11.99;100.00
73516;BME280;61763;51.416;5.442;2024-03-06T12:45:11;102163.19;;;11.82;100.00
73516;BME280;61763;51.416;5.442;2024-03-06T12:47:43;102163.19;;;11.82;100.00
73516;BME280;61763;51.416;5.442;2024-03-06T12:50:11;102162.78;;;11.95;100.00
73516;BME280;61763;51.416;5.442;2024-03-06T12:52:37;102160.91;;;11.97;100.00